KLNN

Willoughby Lost Nation Municipal Airport

Willoughby, Ohio, USA
METAR KLNN 201555Z AUTO 12007KT 10SM SCT001 25/15 A3003 RMK AO1 T02500153
Observed Flight Rules
Aug-20 @ 15:55 UTC (31 minutes ago) Visual Flight Rules
Wind Visibility Clouds
120° at 7 knots 10 miles
  • Scattered at 100' AGL
Temperatures Readings
Current 25°C / 77°F
Dewpoint 15°C / 59°F
Humidity 54%
Altimeter 30.03" Hg
Pressure 1017 hPa
Elevation 191
METAR KLNN 201555Z AUTO 12007KT 10SM SCT001 25/15 A3003 RMK AO1 T02500153
Observed Flight Rules
Aug-20 @ 15:55 UTC
(31 minutes ago)
VFR
Wind Visibility
120° at 7 knots 10 miles
Clouds
  • Scattered at 100' AGL
Temperature Dewpoint
25°C / 77°F 15°C / 59°F
Humidity Altimeter Pressure
54% 30.03" Hg 1017 hPa